createdAt,value
2018-07-07T00:00:30.114Z,71.12
2018-07-07T00:02:06.280Z,71.19
2018-07-07T00:03:42.235Z,71.15
2018-07-07T00:05:18.745Z,70.94
2018-07-07T00:06:54.335Z,70.57
2018-07-07T00:08:29.963Z,70.44
2018-07-07T00:10:05.872Z,70.07
2018-07-07T00:11:41.449Z,69.62
2018-07-07T00:13:17.040Z,69.89
2018-07-07T00:14:52.635Z,69.39
2018-07-07T00:16:28.257Z,69.01
2018-07-07T00:18:04.293Z,69.00
2018-07-07T00:19:40.125Z,68.99
2018-07-07T00:21:15.934Z,68.77
2018-07-07T00:22:52.684Z,68.66
2018-07-07T00:24:28.524Z,68.59
2018-07-07T00:26:04.145Z,68.53
2018-07-07T00:27:39.729Z,68.47
2018-07-07T00:29:15.393Z,68.03
2018-07-07T00:30:50.996Z,67.97
2018-07-07T00:32:26.614Z,67.75
2018-07-07T00:34:02.475Z,67.33
2018-07-07T00:35:38.028Z,67.16
2018-07-07T00:37:13.636Z,67.27
2018-07-07T00:38:49.477Z,67.05
2018-07-07T00:40:25.131Z,66.91
2018-07-07T00:42:00.695Z,66.79
2018-07-07T00:43:36.319Z,66.76
2018-07-07T00:45:11.941Z,66.75
2018-07-07T00:46:47.816Z,66.42
2018-07-07T00:48:23.495Z,66.58
2018-07-07T00:49:59.246Z,66.45
2018-07-07T00:51:34.968Z,66.48
2018-07-07T00:53:10.606Z,66.05
2018-07-07T00:54:46.215Z,66.16
2018-07-07T00:56:21.829Z,66.12
2018-07-07T00:57:57.653Z,65.99
2018-07-07T00:59:33.269Z,66.03
2018-07-07T01:01:08.862Z,66.18
2018-07-07T01:02:44.695Z,65.73
2018-07-07T01:04:20.329Z,65.84
2018-07-07T01:05:55.919Z,65.77
2018-07-07T01:07:31.571Z,65.23
2018-07-07T01:09:07.880Z,65.31
2018-07-07T01:10:44.147Z,65.18
2018-07-07T01:12:21.448Z,65.09
2018-07-07T01:13:57.122Z,65.25
2018-07-07T01:15:33.157Z,64.90
2018-07-07T01:17:09.035Z,64.92
2018-07-07T01:18:44.719Z,65.17
2018-07-07T01:20:21.231Z,65.26
2018-07-07T01:21:57.564Z,65.18
2018-07-07T01:23:33.436Z,65.43
2018-07-07T01:25:10.023Z,65.04
2018-07-07T01:26:45.693Z,65.31
2018-07-07T01:28:22.461Z,65.13
2018-07-07T01:29:58.241Z,65.66
2018-07-07T01:31:33.850Z,65.57
2018-07-07T01:33:10.512Z,65.39
2018-07-07T01:34:47.038Z,65.40
2018-07-07T01:36:22.664Z,65.50
2018-07-07T01:37:58.521Z,65.36
2018-07-07T01:39:34.149Z,65.23
2018-07-07T01:41:09.775Z,65.18
2018-07-07T01:42:45.393Z,65.17
2018-07-07T01:44:21.014Z,65.09
2018-07-07T01:45:56.585Z,65.16
2018-07-07T01:47:32.201Z,65.03
2018-07-07T01:49:07.850Z,65.19
2018-07-07T01:50:43.448Z,65.45
2018-07-07T01:52:19.082Z,65.40
2018-07-07T01:53:54.680Z,65.10
2018-07-07T01:55:30.535Z,65.36
2018-07-07T01:57:06.141Z,65.46
2018-07-07T01:58:41.760Z,65.25
2018-07-07T02:00:17.330Z,65.29
2018-07-07T02:01:53.035Z,65.41
2018-07-07T02:03:29.412Z,65.09
2018-07-07T02:05:05.014Z,65.07
2018-07-07T02:06:40.609Z,65.25
2018-07-07T02:08:16.280Z,65.55
2018-07-07T02:09:51.859Z,65.19
2018-07-07T02:11:27.781Z,65.32
2018-07-07T02:13:03.410Z,65.43
2018-07-07T02:14:39.038Z,65.30
2018-07-07T02:16:14.721Z,65.64
2018-07-07T02:17:50.315Z,65.60
2018-07-07T02:19:25.946Z,65.72
2018-07-07T02:21:01.525Z,65.63
2018-07-07T02:22:37.177Z,65.76
2018-07-07T02:24:12.784Z,65.84
2018-07-07T02:25:48.404Z,65.92
2018-07-07T02:27:24.668Z,66.17
2018-07-07T02:29:00.274Z,66.00
2018-07-07T02:30:36.061Z,66.14
2018-07-07T02:32:11.677Z,66.36
2018-07-07T02:33:47.263Z,66.37
2018-07-07T02:35:22.949Z,66.47
2018-07-07T02:36:58.537Z,66.49
2018-07-07T02:38:34.177Z,66.41
2018-07-07T02:40:09.786Z,66.52
2018-07-07T02:41:45.642Z,66.34
2018-07-07T02:43:21.232Z,66.31
2018-07-07T02:44:56.902Z,66.31
2018-07-07T02:46:32.485Z,66.35
2018-07-07T02:48:08.127Z,66.59
2018-07-07T02:49:43.999Z,66.78
2018-07-07T02:51:19.661Z,67.04
2018-07-07T02:52:55.533Z,66.99
2018-07-07T02:54:32.095Z,67.08
2018-07-07T02:56:07.705Z,67.13
2018-07-07T02:57:43.431Z,67.35
2018-07-07T02:59:19.084Z,67.12
2018-07-07T03:00:54.676Z,67.39
2018-07-07T03:02:30.259Z,67.54
2018-07-07T03:04:05.880Z,67.27
2018-07-07T03:05:41.471Z,67.66
2018-07-07T03:07:17.125Z,67.83
2018-07-07T03:08:52.734Z,67.90
2018-07-07T03:10:28.634Z,68.18
2018-07-07T03:12:04.461Z,68.60
2018-07-07T03:13:40.077Z,68.56
2018-07-07T03:15:22.073Z,68.65
2018-07-07T03:16:57.635Z,68.50
2018-07-07T03:18:33.277Z,68.46
2018-07-07T03:20:09.465Z,68.44
2018-07-07T03:21:45.127Z,68.65
2018-07-07T03:23:20.757Z,68.54
2018-07-07T03:24:56.526Z,68.25
2018-07-07T03:26:32.101Z,68.37
2018-07-07T03:28:07.741Z,68.51
2018-07-07T03:29:43.529Z,68.12
2018-07-07T03:31:19.155Z,68.15
2018-07-07T03:32:54.744Z,68.37
2018-07-07T03:34:30.359Z,68.32
2018-07-07T03:36:06.053Z,68.24
2018-07-07T03:37:41.653Z,68.00
2018-07-07T03:39:17.275Z,68.27
2018-07-07T03:40:52.933Z,68.28
2018-07-07T03:42:28.535Z,68.31
2018-07-07T03:44:04.148Z,68.09
2018-07-07T03:45:39.778Z,68.43
2018-07-07T03:47:15.408Z,68.37
2018-07-07T03:48:50.994Z,68.26
2018-07-07T03:50:26.920Z,67.81
2018-07-07T03:52:02.851Z,67.81
2018-07-07T03:53:38.435Z,67.66
2018-07-07T03:55:14.019Z,67.91
2018-07-07T03:56:49.763Z,68.23
2018-07-07T03:58:25.592Z,68.33
2018-07-07T04:00:01.158Z,68.28
2018-07-07T04:01:36.860Z,68.32
2018-07-07T04:03:12.538Z,68.37
2018-07-07T04:04:48.521Z,67.84
2018-07-07T04:06:24.253Z,68.17
2018-07-07T04:07:59.885Z,67.57
2018-07-07T04:09:35.511Z,67.79
2018-07-07T04:11:11.132Z,67.64
2018-07-07T04:12:46.726Z,67.31
2018-07-07T04:14:22.327Z,67.00
2018-07-07T04:15:57.912Z,66.70
2018-07-07T04:17:33.546Z,66.56
2018-07-07T04:19:09.149Z,66.49
2018-07-07T04:20:44.772Z,63.79
2018-07-07T04:22:20.352Z,58.51
2018-07-07T04:23:55.981Z,52.56
2018-07-07T04:25:31.612Z,47.77
2018-07-07T04:27:07.300Z,43.59
2018-07-07T04:28:42.973Z,42.73
2018-07-07T04:30:18.564Z,41.24
2018-07-07T04:31:54.205Z,41.28
2018-07-07T04:33:29.834Z,40.35
2018-07-07T04:35:06.371Z,39.14
2018-07-07T04:36:42.274Z,38.62
2018-07-07T04:38:18.274Z,39.05
2018-07-07T04:39:53.900Z,39.00
2018-07-07T04:41:29.547Z,38.45
2018-07-07T04:43:05.285Z,36.82
2018-07-07T04:44:41.166Z,36.96
2018-07-07T04:46:17.100Z,35.89
2018-07-07T04:47:52.750Z,35.37
2018-07-07T04:49:28.400Z,34.60
2018-07-07T04:51:04.011Z,35.52
2018-07-07T04:52:39.909Z,34.21
2018-07-07T04:54:15.569Z,32.52
2018-07-07T04:55:51.157Z,31.34
2018-07-07T04:57:26.790Z,32.05
2018-07-07T04:59:02.393Z,31.58
2018-07-07T05:00:38.048Z,31.31
2018-07-07T05:02:13.686Z,32.18
2018-07-07T05:03:49.264Z,33.56
2018-07-07T05:05:24.855Z,36.25
2018-07-07T05:07:01.196Z,38.27
2018-07-07T05:08:37.295Z,41.46
2018-07-07T05:10:13.506Z,43.31
2018-07-07T05:11:49.397Z,44.72
2018-07-07T05:13:24.993Z,45.98
2018-07-07T05:15:00.682Z,46.11
2018-07-07T05:16:36.310Z,46.78
2018-07-07T05:18:11.953Z,47.24
2018-07-07T05:19:47.684Z,46.96
2018-07-07T05:21:23.330Z,47.88
2018-07-07T05:22:58.914Z,48.18
2018-07-07T05:24:34.517Z,48.68
2018-07-07T05:26:10.140Z,49.10
2018-07-07T05:27:45.764Z,49.51
2018-07-07T05:29:21.358Z,49.83
2018-07-07T05:30:56.965Z,50.60
2018-07-07T05:32:32.573Z,50.79
2018-07-07T05:34:08.317Z,49.70
2018-07-07T05:35:43.923Z,49.59
2018-07-07T05:37:19.640Z,50.05
2018-07-07T05:38:55.180Z,50.07
2018-07-07T05:40:30.780Z,50.73
2018-07-07T05:42:06.613Z,51.25
2018-07-07T05:43:42.186Z,51.74
2018-07-07T05:45:17.814Z,52.50
2018-07-07T05:46:53.383Z,52.87
2018-07-07T05:48:29.724Z,52.94
2018-07-07T05:50:05.830Z,53.32
2018-07-07T05:51:41.437Z,53.43
2018-07-07T05:53:17.048Z,53.39
2018-07-07T05:54:52.887Z,53.21
2018-07-07T05:56:28.625Z,53.04
2018-07-07T05:58:04.285Z,53.51
2018-07-07T05:59:39.883Z,53.08
2018-07-07T06:01:15.692Z,52.99
2018-07-07T06:02:51.264Z,52.49
2018-07-07T06:04:26.907Z,52.55
2018-07-07T06:06:02.523Z,51.34
2018-07-07T06:07:38.476Z,51.16
2018-07-07T06:09:14.237Z,51.09
2018-07-07T06:10:49.870Z,50.99
2018-07-07T06:12:25.551Z,50.91
2018-07-07T06:14:01.365Z,50.73
2018-07-07T06:15:36.961Z,49.48
2018-07-07T06:17:12.720Z,49.12
2018-07-07T06:18:48.480Z,49.12
2018-07-07T06:20:24.183Z,48.61
2018-07-07T06:21:59.799Z,48.85
2018-07-07T06:23:35.378Z,47.57
2018-07-07T06:25:11.147Z,46.76
2018-07-07T06:26:46.865Z,46.17
2018-07-07T06:28:22.458Z,46.89
2018-07-07T06:29:58.208Z,47.21
2018-07-07T06:31:33.844Z,47.50
2018-07-07T06:33:09.465Z,47.19
2018-07-07T06:34:45.397Z,47.12
2018-07-07T06:36:21.020Z,47.56
2018-07-07T06:37:56.982Z,47.98
2018-07-07T06:39:32.832Z,47.66
2018-07-07T06:41:08.444Z,47.62
2018-07-07T06:42:44.062Z,47.97
2018-07-07T06:44:19.898Z,47.92
2018-07-07T06:45:55.544Z,48.46
2018-07-07T06:47:31.124Z,48.69
2018-07-07T06:49:06.748Z,49.09
2018-07-07T06:50:42.359Z,49.28
2018-07-07T06:52:17.976Z,49.13
2018-07-07T06:53:53.697Z,48.96
2018-07-07T06:55:29.274Z,49.05
2018-07-07T06:57:05.482Z,48.69
2018-07-07T06:58:41.089Z,48.60
2018-07-07T07:00:17.007Z,49.08
2018-07-07T07:01:52.928Z,48.84
2018-07-07T07:03:29.339Z,48.85
2018-07-07T07:05:05.399Z,48.81
2018-07-07T07:06:41.713Z,48.90
2018-07-07T07:08:17.301Z,48.95
2018-07-07T07:09:52.907Z,49.26
2018-07-07T07:11:28.561Z,49.14
2018-07-07T07:13:04.225Z,48.95
2018-07-07T07:14:40.046Z,48.82
2018-07-07T07:16:15.694Z,49.21
2018-07-07T07:17:51.352Z,48.80
2018-07-07T07:19:26.963Z,48.87
2018-07-07T07:21:02.558Z,49.12
2018-07-07T07:22:38.226Z,49.14
2018-07-07T07:24:14.102Z,48.74
2018-07-07T07:25:49.714Z,49.09
2018-07-07T07:27:25.615Z,48.51
2018-07-07T07:29:01.213Z,48.50
2018-07-07T07:30:36.816Z,48.43
2018-07-07T07:32:12.414Z,48.59
2018-07-07T07:33:48.322Z,48.33
2018-07-07T07:35:24.101Z,48.55
2018-07-07T07:36:59.744Z,48.20
2018-07-07T07:38:35.375Z,48.66
2018-07-07T07:40:11.313Z,47.09
2018-07-07T07:41:46.901Z,46.68
2018-07-07T07:43:22.473Z,46.52
2018-07-07T07:44:58.101Z,46.51
2018-07-07T07:46:33.826Z,46.31
2018-07-07T07:48:09.423Z,46.40
2018-07-07T07:49:45.045Z,46.04
2018-07-07T07:51:20.669Z,46.02
2018-07-07T07:52:56.436Z,45.98
2018-07-07T07:54:32.063Z,44.24
2018-07-07T07:56:07.780Z,43.95
2018-07-07T07:57:43.380Z,43.77
2018-07-07T07:59:19.287Z,43.80
2018-07-07T08:00:54.909Z,42.77
2018-07-07T08:02:30.525Z,42.26
2018-07-07T08:04:06.396Z,42.57
2018-07-07T08:05:42.041Z,42.18
2018-07-07T08:07:17.645Z,40.77
2018-07-07T08:08:53.299Z,38.86
2018-07-07T08:10:28.936Z,36.05
2018-07-07T08:12:04.602Z,36.13
2018-07-07T08:13:40.305Z,34.92
2018-07-07T08:15:15.963Z,33.84
2018-07-07T08:16:51.785Z,33.94
2018-07-07T08:18:27.431Z,33.78
2018-07-07T08:20:03.046Z,33.76
2018-07-07T08:21:38.702Z,32.81
2018-07-07T08:23:14.333Z,32.66
2018-07-07T08:24:49.964Z,33.21
2018-07-07T08:26:25.580Z,32.89
2018-07-07T08:28:01.213Z,33.45
2018-07-07T08:29:36.838Z,32.96
2018-07-07T08:31:12.492Z,32.91
2018-07-07T08:32:48.132Z,32.30
2018-07-07T08:34:26.808Z,33.15
2018-07-07T08:36:02.784Z,32.22
2018-07-07T08:37:38.704Z,31.80
2018-07-07T08:39:14.272Z,31.90
2018-07-07T08:40:50.115Z,31.73
2018-07-07T08:42:25.869Z,31.74
2018-07-07T08:44:01.550Z,31.90
2018-07-07T08:45:37.501Z,32.48
2018-07-07T08:47:13.625Z,33.14
2018-07-07T08:48:49.419Z,33.29
2018-07-07T08:50:25.014Z,32.06
2018-07-07T08:52:00.884Z,32.44
2018-07-07T08:53:36.726Z,32.30
2018-07-07T08:55:12.360Z,31.48
2018-07-07T08:56:48.070Z,31.33
2018-07-07T08:58:24.018Z,31.35
2018-07-07T08:59:59.890Z,30.83
2018-07-07T09:01:35.506Z,30.27
2018-07-07T09:03:11.602Z,29.77
2018-07-07T09:04:47.219Z,30.06
2018-07-07T09:06:22.840Z,30.67
2018-07-07T09:07:58.708Z,31.10
2018-07-07T09:09:34.312Z,32.09
2018-07-07T09:11:10.329Z,32.70
2018-07-07T09:12:46.760Z,31.32
2018-07-07T09:14:22.418Z,29.33
2018-07-07T09:15:58.196Z,28.92
2018-07-07T09:17:34.614Z,29.64
2018-07-07T09:19:10.206Z,28.74
2018-07-07T09:20:45.880Z,29.50
2018-07-07T09:22:21.534Z,26.19
2018-07-07T09:23:57.476Z,22.12
2018-07-07T09:25:33.476Z,22.59
2018-07-07T09:27:09.124Z,23.76
2018-07-07T09:28:44.821Z,23.52
2018-07-07T09:30:20.473Z,22.42
2018-07-07T09:31:56.112Z,22.04
2018-07-07T09:33:31.700Z,22.18
2018-07-07T09:35:07.525Z,19.89
2018-07-07T09:36:43.205Z,21.42
2018-07-07T09:38:18.861Z,22.31
2018-07-07T09:40:02.681Z,22.15
2018-07-07T09:41:38.314Z,22.65
2018-07-07T09:43:13.922Z,22.42
2018-07-07T09:44:50.037Z,24.66
2018-07-07T09:46:25.932Z,23.59
2018-07-07T09:48:01.997Z,23.79
2018-07-07T09:49:37.608Z,24.27
2018-07-07T09:51:13.222Z,23.36
2018-07-07T09:52:49.000Z,24.03
2018-07-07T09:54:25.195Z,24.76
2018-07-07T09:56:01.132Z,24.20
2018-07-07T09:57:36.743Z,23.05
2018-07-07T09:59:12.757Z,21.84
2018-07-07T10:00:48.410Z,22.89
2018-07-07T10:02:24.255Z,23.14
2018-07-07T10:03:59.886Z,22.31
2018-07-07T10:05:35.498Z,21.11
2018-07-07T10:07:11.540Z,20.43
2018-07-07T10:08:47.570Z,20.59
2018-07-07T10:10:23.179Z,21.25
2018-07-07T10:11:59.048Z,22.18
2018-07-07T10:13:34.677Z,22.72
2018-07-07T10:15:10.341Z,21.85
2018-07-07T10:16:45.949Z,22.31
2018-07-07T10:18:21.572Z,22.85
2018-07-07T10:19:57.157Z,23.51
2018-07-07T10:21:32.814Z,22.94
2018-07-07T10:23:08.594Z,23.64
2018-07-07T10:24:44.224Z,22.56
2018-07-07T10:26:19.860Z,22.57
2018-07-07T10:27:55.465Z,21.72
2018-07-07T10:29:31.111Z,22.10
2018-07-07T10:31:06.750Z,21.92
2018-07-07T10:32:42.470Z,22.15
2018-07-07T10:34:19.193Z,21.19
2018-07-07T10:35:54.808Z,20.78
2018-07-07T10:37:30.473Z,21.15
2018-07-07T10:39:06.730Z,21.31
2018-07-07T10:40:42.367Z,21.10
2018-07-07T10:42:18.256Z,20.56
2018-07-07T10:43:53.888Z,20.43
2018-07-07T10:45:29.540Z,20.86
2018-07-07T10:47:05.116Z,21.06
2018-07-07T10:48:40.746Z,21.32
2018-07-07T10:50:16.564Z,21.26
2018-07-07T10:51:53.307Z,21.38
2018-07-07T10:53:28.905Z,21.85
2018-07-07T10:55:04.581Z,21.51
2018-07-07T10:56:40.192Z,22.15
2018-07-07T10:58:15.828Z,22.17
2018-07-07T10:59:52.574Z,21.54
2018-07-07T11:01:28.180Z,21.96
2018-07-07T11:03:03.809Z,22.45
2018-07-07T11:04:39.393Z,21.96
2018-07-07T11:06:15.406Z,21.88
2018-07-07T11:07:51.232Z,22.23
2018-07-07T11:09:26.997Z,23.03
2018-07-07T11:11:02.585Z,22.39
2018-07-07T11:12:38.222Z,23.18
2018-07-07T11:14:13.852Z,22.93
2018-07-07T11:15:49.452Z,23.71
2018-07-07T11:17:25.072Z,24.34
2018-07-07T11:19:00.675Z,24.26
2018-07-07T11:20:36.333Z,23.69
2018-07-07T11:22:11.938Z,23.59
2018-07-07T11:23:47.556Z,22.39
2018-07-07T11:25:23.174Z,22.59
2018-07-07T11:26:59.023Z,22.85
2018-07-07T11:28:34.639Z,23.30
2018-07-07T11:30:10.256Z,22.98
2018-07-07T11:31:45.874Z,23.09
2018-07-07T11:33:21.529Z,22.63
2018-07-07T11:34:57.117Z,22.44
2018-07-07T11:36:32.810Z,23.19
2018-07-07T11:38:08.606Z,23.49
2018-07-07T11:39:44.243Z,23.76
2018-07-07T11:41:21.178Z,24.04
2018-07-07T11:42:57.635Z,23.96
2018-07-07T11:44:33.246Z,24.15
2018-07-07T11:46:09.067Z,24.08
2018-07-07T11:47:44.724Z,24.28
2018-07-07T11:49:21.406Z,24.09
2018-07-07T11:50:57.070Z,23.63
2018-07-07T11:52:32.920Z,23.98
2018-07-07T11:54:08.514Z,23.81
2018-07-07T11:55:44.222Z,23.28
2018-07-07T11:57:19.915Z,23.84
2018-07-07T11:58:55.487Z,24.29
2018-07-07T12:00:31.105Z,23.82
2018-07-07T12:02:06.756Z,23.23
2018-07-07T12:03:42.563Z,22.85
2018-07-07T12:05:18.210Z,23.03
2018-07-07T12:06:53.951Z,20.73
2018-07-07T12:08:29.648Z,21.44
2018-07-07T12:10:05.236Z,21.92
2018-07-07T12:11:40.922Z,21.48
2018-07-07T12:13:16.482Z,21.55
2018-07-07T12:14:52.161Z,21.59
2018-07-07T12:16:27.895Z,20.65
2018-07-07T12:18:03.553Z,20.41
2018-07-07T12:19:39.189Z,20.88
2018-07-07T12:21:14.917Z,20.93
2018-07-07T12:22:51.608Z,21.39
2018-07-07T12:24:27.438Z,21.62
2018-07-07T12:26:03.087Z,22.54
2018-07-07T12:27:38.767Z,23.54
2018-07-07T12:29:14.364Z,22.56
2018-07-07T12:30:50.100Z,23.05
2018-07-07T12:32:25.724Z,23.23
2018-07-07T12:34:01.388Z,23.65
2018-07-07T12:35:37.000Z,23.20
2018-07-07T12:37:12.612Z,23.39
2018-07-07T12:38:48.404Z,23.63
2018-07-07T12:40:24.104Z,24.16
2018-07-07T12:42:00.178Z,23.76
2018-07-07T12:43:36.280Z,24.27
2018-07-07T12:45:11.878Z,23.95
2018-07-07T12:46:47.840Z,23.92
2018-07-07T12:48:23.769Z,24.11
2018-07-07T12:50:00.564Z,24.39
2018-07-07T12:51:36.215Z,24.07
2018-07-07T12:53:11.889Z,24.08
2018-07-07T12:54:47.621Z,24.58
2018-07-07T12:56:23.575Z,24.70
2018-07-07T12:57:59.222Z,24.78
2018-07-07T12:59:34.829Z,25.02
2018-07-07T13:01:11.050Z,24.17
2018-07-07T13:02:46.633Z,24.88
2018-07-07T13:04:22.255Z,25.02
2018-07-07T13:05:57.836Z,25.04
2018-07-07T13:07:33.598Z,25.47
2018-07-07T13:09:09.215Z,25.79
2018-07-07T13:10:44.814Z,25.23
2018-07-07T13:12:20.406Z,24.76
2018-07-07T13:13:56.080Z,24.66
2018-07-07T13:15:32.467Z,23.93
2018-07-07T13:17:08.591Z,24.64
2018-07-07T13:18:44.243Z,24.99
2018-07-07T13:20:20.120Z,25.83
2018-07-07T13:21:55.765Z,26.35
2018-07-07T13:23:31.366Z,26.53
2018-07-07T13:25:06.998Z,26.69
2018-07-07T13:26:42.916Z,26.35
2018-07-07T13:28:18.935Z,25.91
2018-07-07T13:29:54.557Z,26.18
2018-07-07T13:31:30.486Z,26.23
2018-07-07T13:33:07.458Z,26.72
2018-07-07T13:34:43.356Z,26.85
2018-07-07T13:36:19.005Z,26.95
2018-07-07T13:37:54.714Z,27.37
2018-07-07T13:39:30.618Z,27.94
2018-07-07T13:41:07.969Z,27.91
2018-07-07T13:42:43.574Z,28.48
2018-07-07T13:44:19.481Z,27.84
2018-07-07T13:45:55.083Z,27.58
2018-07-07T13:47:30.881Z,27.58
2018-07-07T13:49:06.816Z,27.26
2018-07-07T13:50:42.430Z,27.43
2018-07-07T13:52:18.348Z,27.07
2018-07-07T13:53:54.140Z,26.69
2018-07-07T13:55:29.766Z,27.19
2018-07-07T13:57:05.831Z,27.33
2018-07-07T13:58:41.780Z,27.56
2018-07-07T14:00:17.386Z,27.60
2018-07-07T14:01:53.084Z,27.52
2018-07-07T14:03:29.185Z,27.81
2018-07-07T14:05:05.192Z,27.80
2018-07-07T14:06:41.052Z,27.79
2018-07-07T14:08:16.949Z,27.83
2018-07-07T14:09:52.533Z,27.70
2018-07-07T14:11:28.227Z,27.73
2018-07-07T14:13:03.873Z,28.60
2018-07-07T14:14:39.493Z,27.79
2018-07-07T14:16:15.073Z,28.51
2018-07-07T14:17:50.681Z,28.37
2018-07-07T14:19:26.304Z,28.27
2018-07-07T14:21:01.931Z,28.28
2018-07-07T14:22:37.557Z,27.55
2018-07-07T14:24:13.434Z,27.43
2018-07-07T14:25:49.073Z,27.71
2018-07-07T14:27:24.755Z,27.96
2018-07-07T14:29:00.383Z,27.92
2018-07-07T14:30:36.141Z,28.46
2018-07-07T14:32:11.713Z,27.93
2018-07-07T14:33:47.320Z,28.20
2018-07-07T14:35:22.996Z,28.05
2018-07-07T14:36:58.606Z,27.64
2018-07-07T14:38:35.954Z,27.72
2018-07-07T14:40:11.572Z,28.30
2018-07-07T14:41:49.219Z,27.86
2018-07-07T14:43:34.744Z,27.84
2018-07-07T14:45:14.656Z,28.44
2018-07-07T14:46:50.802Z,28.10
2018-07-07T14:48:26.446Z,27.75
2018-07-07T14:50:02.063Z,27.62
2018-07-07T14:51:37.671Z,27.74
2018-07-07T14:53:13.341Z,27.57
2018-07-07T14:54:48.934Z,26.85
2018-07-07T14:56:25.100Z,26.99
2018-07-07T14:58:00.711Z,26.72
2018-07-07T14:59:36.326Z,27.34
2018-07-07T15:01:12.489Z,27.00
2018-07-07T15:02:49.530Z,26.80
2018-07-07T15:04:25.142Z,27.55
2018-07-07T15:06:00.731Z,27.33
2018-07-07T15:07:36.330Z,26.91
2018-07-07T15:09:11.977Z,27.43
2018-07-07T15:10:47.783Z,26.89
2018-07-07T15:12:23.391Z,26.68
2018-07-07T15:13:58.974Z,27.53
2018-07-07T15:15:34.870Z,27.36
2018-07-07T15:17:10.527Z,26.69
2018-07-07T15:18:46.152Z,26.58
2018-07-07T15:20:21.772Z,26.82
2018-07-07T15:21:57.413Z,27.15
2018-07-07T15:23:33.279Z,26.90
2018-07-07T15:25:09.211Z,26.70
2018-07-07T15:26:45.157Z,26.95
2018-07-07T15:28:20.791Z,27.55
2018-07-07T15:29:56.560Z,27.19
2018-07-07T15:31:32.176Z,27.97
2018-07-07T15:33:07.793Z,28.03
2018-07-07T15:34:43.661Z,27.78
2018-07-07T15:36:19.277Z,28.29
2018-07-07T15:37:54.901Z,28.42
2018-07-07T15:39:30.807Z,28.42
2018-07-07T15:41:06.413Z,28.93
2018-07-07T15:42:42.020Z,28.62
2018-07-07T15:44:17.632Z,28.59
2018-07-07T15:45:53.280Z,28.59
2018-07-07T15:47:28.897Z,28.85
2018-07-07T15:49:04.524Z,28.87
2018-07-07T15:50:40.098Z,29.10
2018-07-07T15:52:15.785Z,29.32
2018-07-07T15:53:51.634Z,28.96
2018-07-07T15:55:27.237Z,28.36
2018-07-07T15:57:02.905Z,28.33
2018-07-07T15:58:38.483Z,28.89
2018-07-07T16:00:14.357Z,28.61
2018-07-07T16:01:50.009Z,28.21
2018-07-07T16:03:25.613Z,28.11
2018-07-07T16:05:01.225Z,28.18
2018-07-07T16:06:36.961Z,28.21
2018-07-07T16:08:12.571Z,28.05
2018-07-07T16:09:48.166Z,27.37
2018-07-07T16:11:23.737Z,27.47
2018-07-07T16:12:59.670Z,27.84
2018-07-07T16:14:35.290Z,27.80
2018-07-07T16:16:10.920Z,27.46
2018-07-07T16:17:46.566Z,27.59
2018-07-07T16:19:22.163Z,27.33
2018-07-07T16:20:57.815Z,26.70
2018-07-07T16:22:33.433Z,27.25
2018-07-07T16:24:09.064Z,26.54
2018-07-07T16:25:44.911Z,26.71
2018-07-07T16:27:20.558Z,26.82
2018-07-07T16:28:56.153Z,26.80
2018-07-07T16:30:32.065Z,27.37
2018-07-07T16:32:07.669Z,27.43
2018-07-07T16:33:43.271Z,27.22
2018-07-07T16:35:18.850Z,27.33
2018-07-07T16:36:54.567Z,27.61
2018-07-07T16:38:30.367Z,27.33
2018-07-07T16:40:05.990Z,26.96
2018-07-07T16:41:41.589Z,27.24
2018-07-07T16:43:17.229Z,26.88
2018-07-07T16:44:52.857Z,27.37
2018-07-07T16:46:28.465Z,27.55
2018-07-07T16:48:04.051Z,27.41
2018-07-07T16:49:39.714Z,27.59
2018-07-07T16:51:15.370Z,27.68
2018-07-07T16:52:50.975Z,27.34
2018-07-07T16:54:26.621Z,27.57
2018-07-07T16:56:02.653Z,27.66
2018-07-07T16:57:38.263Z,27.41
2018-07-07T16:59:14.543Z,27.21
2018-07-07T17:00:50.190Z,27.30
2018-07-07T17:02:26.050Z,27.30
2018-07-07T17:04:01.900Z,27.88
2018-07-07T17:05:37.514Z,27.60
2018-07-07T17:07:13.375Z,28.06
2018-07-07T17:08:48.984Z,27.95
2018-07-07T17:10:24.588Z,28.96
2018-07-07T17:12:00.646Z,28.87
2018-07-07T17:13:36.547Z,28.67
2018-07-07T17:15:12.334Z,28.58
2018-07-07T17:16:47.924Z,29.35
2018-07-07T17:18:23.698Z,28.89
2018-07-07T17:19:59.328Z,28.93
2018-07-07T17:21:34.967Z,29.02
2018-07-07T17:23:10.825Z,29.26
2018-07-07T17:24:46.474Z,29.13
2018-07-07T17:26:22.152Z,29.15
2018-07-07T17:27:57.833Z,29.69
2018-07-07T17:29:34.654Z,30.05
2018-07-07T17:31:10.611Z,29.97
2018-07-07T17:32:46.298Z,30.25
2018-07-07T17:34:22.148Z,29.40
2018-07-07T17:35:58.063Z,29.94
2018-07-07T17:37:33.738Z,29.65
2018-07-07T17:39:09.398Z,29.38
2018-07-07T17:40:45.030Z,29.38
2018-07-07T17:42:20.743Z,29.30
2018-07-07T17:43:56.312Z,29.34
2018-07-07T17:45:32.297Z,29.12
2018-07-07T17:47:07.934Z,29.19
2018-07-07T17:48:43.576Z,29.44
2018-07-07T17:50:19.163Z,29.26
2018-07-07T17:51:54.836Z,29.20
2018-07-07T17:53:30.577Z,29.54
2018-07-07T17:55:07.401Z,29.30
2018-07-07T17:56:43.008Z,29.75
2018-07-07T17:58:18.938Z,29.75
2018-07-07T17:59:55.158Z,29.90
2018-07-07T18:01:30.822Z,30.19
2018-07-07T18:03:06.448Z,30.36
2018-07-07T18:04:42.210Z,30.05
2018-07-07T18:06:17.946Z,31.04
2018-07-07T18:07:53.590Z,30.23
2018-07-07T18:09:30.097Z,30.84
2018-07-07T18:11:05.665Z,30.81
2018-07-07T18:12:41.286Z,30.53
2018-07-07T18:14:17.745Z,30.97
2018-07-07T18:15:53.359Z,31.13
2018-07-07T18:17:29.893Z,31.06
2018-07-07T18:19:06.066Z,31.56
2018-07-07T18:20:41.793Z,30.98
2018-07-07T18:22:17.431Z,31.27
2018-07-07T18:23:53.219Z,31.30
2018-07-07T18:25:29.048Z,31.32
2018-07-07T18:27:04.671Z,32.24
2018-07-07T18:28:40.278Z,31.88
2018-07-07T18:30:15.913Z,32.06
2018-07-07T18:31:51.607Z,32.38
2018-07-07T18:33:27.178Z,32.53
2018-07-07T18:35:03.097Z,32.63
2018-07-07T18:36:38.723Z,33.09
2018-07-07T18:38:14.572Z,32.96
2018-07-07T18:39:49.974Z,33.08
2018-07-07T18:41:25.646Z,33.19
2018-07-07T18:43:01.226Z,33.26
2018-07-07T18:44:36.859Z,33.36
2018-07-07T18:46:12.469Z,33.61
2018-07-07T18:47:48.209Z,34.12
2018-07-07T18:49:23.856Z,33.81
2018-07-07T18:50:59.568Z,34.41
2018-07-07T18:52:35.177Z,34.24
2018-07-07T18:54:10.782Z,34.77
2018-07-07T18:55:46.379Z,35.08
2018-07-07T18:57:22.057Z,35.36
2018-07-07T19:00:32.781Z,35.80
2018-07-07T19:02:08.865Z,36.00
2018-07-07T19:03:44.487Z,36.33
2018-07-07T19:05:20.085Z,35.62
2018-07-07T19:06:55.733Z,35.65
2018-07-07T19:08:31.326Z,35.87
2018-07-07T19:10:06.956Z,36.02
2018-07-07T19:11:42.601Z,36.35
2018-07-07T19:13:18.249Z,36.76
2018-07-07T19:14:58.175Z,36.29
2018-07-07T19:16:33.754Z,36.69
2018-07-07T19:18:09.621Z,36.89
2018-07-07T19:19:45.308Z,37.28
2018-07-07T19:21:26.203Z,36.97
2018-07-07T19:23:07.257Z,38.23
2018-07-07T19:24:48.194Z,38.10
2018-07-07T19:26:29.250Z,39.16
2018-07-07T19:28:04.980Z,39.09
2018-07-07T19:29:40.604Z,39.77
2018-07-07T19:31:16.517Z,39.75
2018-07-07T19:32:57.360Z,40.00
2018-07-07T19:34:38.405Z,40.04
2018-07-07T19:36:19.653Z,39.62
2018-07-07T19:37:55.297Z,40.25
2018-07-07T19:39:30.890Z,40.58
2018-07-07T19:41:06.824Z,40.86
2018-07-07T19:42:42.736Z,41.45
2018-07-07T19:44:18.322Z,41.24
2018-07-07T19:45:54.924Z,41.65
2018-07-07T19:47:30.692Z,41.74
2018-07-07T19:49:06.832Z,41.86
2018-07-07T19:50:43.205Z,42.41
2018-07-07T19:52:18.817Z,42.73
2018-07-07T19:53:54.514Z,42.94
2018-07-07T19:55:30.410Z,42.93
2018-07-07T19:57:06.787Z,43.63
2018-07-07T19:58:42.396Z,43.93
2018-07-07T20:00:18.121Z,44.21
2018-07-07T20:01:53.709Z,44.27
2018-07-07T20:03:29.347Z,44.36
2018-07-07T20:05:05.388Z,44.16
2018-07-07T20:06:41.660Z,44.47
2018-07-07T20:08:17.572Z,44.61
2018-07-07T20:09:53.253Z,45.34
2018-07-07T20:11:28.984Z,45.20
2018-07-07T20:13:04.649Z,45.00
2018-07-07T20:14:40.445Z,44.98
2018-07-07T20:16:21.300Z,45.72
2018-07-07T20:18:00.324Z,45.67
2018-07-07T20:19:52.726Z,45.50
2018-07-07T20:21:45.034Z,45.79
2018-07-07T20:23:20.998Z,46.51
2018-07-07T20:24:56.629Z,46.22
2018-07-07T20:26:32.260Z,46.92
2018-07-07T20:28:13.149Z,46.57
2018-07-07T20:29:48.771Z,46.99
2018-07-07T20:31:24.376Z,46.76
2018-07-07T20:33:00.202Z,46.84
2018-07-07T20:34:35.869Z,47.12
2018-07-07T20:36:11.444Z,46.95